Time;durP1;ratioP1;P1;durP2;ratioP2;P2;SDS_P1;SDS_P2;PMS_P1;PMS_P2;Temp;Humidity;BMP_temperature;BMP_pressure;BME280_temperature;BME280_humidity;BME280_pressure;Samples;Min_cycle;Max_cycle;Signal;HPM_P1;HPM_P2
2023/04/23 00:01:19;;;;;;;6.13;3.67;;;;;;;10.74;98.05;98611.72;5052845;28;20064;-59
2023/04/23 00:03:46;;;;;;;6.28;4.00;;;;;;;10.58;100.00;98605.41;5053204;28;20395;-59
2023/04/23 00:06:14;;;;;;;6.53;4.50;;;;;;;10.60;100.00;98602.50;5053332;28;20131;-60
2023/04/23 00:08:41;;;;;;;6.45;4.43;;;;;;;10.62;100.00;98603.06;5051781;28;20483;-60
2023/04/23 00:11:08;;;;;;;6.88;4.72;;;;;;;10.54;100.00;98596.31;5050959;28;20037;-60
2023/04/23 00:13:35;;;;;;;7.90;4.30;;;;;;;10.52;100.00;98599.22;5054791;28;20041;-60
2023/04/23 00:16:03;;;;;;;9.27;4.85;;;;;;;10.51;100.00;98605.66;5053771;28;20436;-60
2023/04/23 00:18:32;;;;;;;8.57;4.97;;;;;;;10.47;100.00;98599.19;5053692;28;20572;-60
2023/04/23 00:20:58;;;;;;;8.05;4.72;;;;;;;10.48;100.00;98595.47;5054033;28;20051;-59
2023/04/23 00:23:25;;;;;;;7.53;5.18;;;;;;;10.40;100.00;98598.59;5053620;28;20141;-60
2023/04/23 00:25:53;;;;;;;8.68;5.40;;;;;;;10.38;100.00;98603.41;5057471;28;20045;-59
2023/04/23 00:28:20;;;;;;;9.70;5.53;;;;;;;10.38;100.00;98603.41;5047783;28;20047;-60
2023/04/23 00:30:47;;;;;;;13.10;5.78;;;;;;;10.42;100.00;98601.84;5051755;28;20122;-60
2023/04/23 00:33:14;;;;;;;7.65;5.40;;;;;;;10.42;100.00;98599.16;5061690;28;20068;-60
2023/04/23 00:35:42;;;;;;;9.77;6.00;;;;;;;10.53;100.00;98602.69;5051883;28;20040;-60
2023/04/23 00:38:09;;;;;;;9.15;5.93;;;;;;;10.50;100.00;98605.91;5054781;28;20061;-59
2023/04/23 00:40:37;;;;;;;9.25;5.55;;;;;;;10.48;100.00;98606.19;5053559;28;20044;-60
2023/04/23 00:43:04;;;;;;;9.27;6.03;;;;;;;10.39;100.00;98601.56;5056882;28;20122;-60
2023/04/23 00:45:31;;;;;;;9.63;5.80;;;;;;;10.49;100.00;98596.25;5058919;28;20063;-60
2023/04/23 00:47:58;;;;;;;10.00;6.03;;;;;;;10.50;100.00;98595.19;5053109;28;20503;-60
2023/04/23 00:50:25;;;;;;;9.65;6.28;;;;;;;10.45;100.00;98595.94;5051248;28;20533;-60
2023/04/23 00:52:54;;;;;;;9.73;6.22;;;;;;;10.48;100.00;98590.09;5048100;28;20479;-60
2023/04/23 00:55:21;;;;;;;12.95;7.28;;;;;;;10.47;100.00;98593.03;5070357;28;20041;-59
2023/04/23 00:57:48;;;;;;;8.98;6.78;;;;;;;10.39;100.00;98594.31;5054837;28;20040;-60
2023/04/23 01:00:15;;;;;;;11.25;6.82;;;;;;;10.39;100.00;98594.31;5060076;28;20128;-60
2023/04/23 01:02:43;;;;;;;9.30;6.20;;;;;;;10.25;100.00;98585.84;5039230;28;20098;-59
2023/04/23 01:05:11;;;;;;;10.18;7.38;;;;;;;10.23;100.00;98592.53;5055418;28;20074;-60
2023/04/23 01:07:38;;;;;;;15.65;7.65;;;;;;;10.30;100.00;98585.13;5056683;28;20050;-60
2023/04/23 01:10:08;;;;;;;12.15;7.85;;;;;;;10.27;100.00;98588.28;5056759;28;20047;-60
2023/04/23 01:12:35;;;;;;;10.60;7.75;;;;;;;10.28;100.00;98584.56;5054092;28;20045;-59
2023/04/23 01:15:02;;;;;;;11.63;8.02;;;;;;;10.26;100.00;98589.34;5053982;28;20045;-59
2023/04/23 01:17:30;;;;;;;13.45;8.13;;;;;;;10.25;100.00;98585.84;5052572;28;20399;-59
2023/04/23 01:19:58;;;;;;;13.90;8.02;;;;;;;10.23;100.00;98579.16;5051437;28;20136;-59
2023/04/23 01:22:26;;;;;;;11.50;8.13;;;;;;;10.20;100.00;98579.66;5053281;28;20127;-59
2023/04/23 01:24:53;;;;;;;11.38;8.27;;;;;;;10.23;100.00;98587.19;5054248;28;20055;-59
2023/04/23 01:27:21;;;;;;;13.23;8.63;;;;;;;10.18;100.00;98587.13;5052593;28;20103;-59
2023/04/23 01:29:48;;;;;;;14.05;9.07;;;;;;;10.13;100.00;98578.03;5060375;28;20052;-59
2023/04/23 01:32:15;;;;;;;15.23;9.15;;;;;;;10.14;100.00;98579.63;5052595;28;20120;-59
2023/04/23 01:34:42;;;;;;;14.20;9.18;;;;;;;10.15;100.00;98583.91;5055021;28;20068;-60
2023/04/23 01:37:10;;;;;;;16.75;9.90;;;;;;;10.14;100.00;98581.50;5070886;28;20036;-60
2023/04/23 01:39:38;;;;;;;15.45;9.85;;;;;;;10.18;100.00;98574.56;5049544;28;20075;-60
2023/04/23 01:42:06;;;;;;;13.57;9.68;;;;;;;10.12;100.00;98579.06;5053871;28;20048;-60
2023/04/23 01:44:33;;;;;;;17.50;10.07;;;;;;;10.08;100.00;98583.34;5060370;28;20036;-60
2023/04/23 01:47:00;;;;;;;14.38;9.45;;;;;;;10.06;100.00;98585.44;5055136;28;20864;-60
2023/04/23 01:49:27;;;;;;;13.07;9.25;;;;;;;10.06;100.00;98588.13;5058771;28;20040;-60
2023/04/23 01:51:54;;;;;;;15.25;10.00;;;;;;;10.12;100.00;98584.41;5058609;28;20052;-59
2023/04/23 01:54:21;;;;;;;11.85;9.00;;;;;;;10.07;100.00;98576.34;5059391;28;20094;-61
2023/04/23 01:56:53;;;;;;;13.57;9.50;;;;;;;10.09;100.00;98584.94;5051873;28;20128;-61
2023/04/23 01:59:22;;;;;;;16.70;9.90;;;;;;;10.08;100.00;98579.81;5052171;28;20070;-60
2023/04/23 02:01:49;;;;;;;14.98;9.70;;;;;;;10.11;100.00;98580.13;5053050;28;20033;-60
2023/04/23 02:04:16;;;;;;;15.20;9.52;;;;;;;10.09;100.00;98576.91;5057966;28;20406;-60
2023/04/23 02:06:46;;;;;;;11.65;9.20;;;;;;;10.09;100.00;98581.47;5061326;28;20044;-60
2023/04/23 02:09:13;;;;;;;12.20;8.82;;;;;;;10.11;100.00;98582.03;5056051;28;20037;-60
2023/04/23 02:11:40;;;;;;;13.90;9.07;;;;;;;10.08;100.00;98586.00;5043023;28;20072;-60
2023/04/23 02:14:08;;;;;;;16.83;9.32;;;;;;;10.05;100.00;98588.38;5061349;28;20396;-60
2023/04/23 02:16:35;;;;;;;14.77;8.73;;;;;;;10.05;100.00;98583.81;5062621;28;20068;-59
2023/04/23 02:19:02;;;;;;;17.65;9.50;;;;;;;10.08;100.00;98590.53;5050975;28;20072;-60
2023/04/23 02:21:29;;;;;;;12.90;9.23;;;;;;;10.08;100.00;98586.00;5056002;28;20135;-60
2023/04/23 02:23:56;;;;;;;13.10;9.32;;;;;;;10.02;100.00;98592.38;5064151;28;20044;-60
2023/04/23 02:26:24;;;;;;;16.50;10.93;;;;;;;9.94;100.00;98590.16;5057971;28;20052;-60
2023/04/23 02:28:51;;;;;;;18.98;10.98;;;;;;;9.97;100.00;98588.84;5053482;28;20486;-59
2023/04/23 02:31:19;;;;;;;17.08;11.13;;;;;;;9.92;100.00;98587.72;5055364;28;20036;-60
2023/04/23 02:33:48;;;;;;;16.67;10.82;;;;;;;9.95;100.00;98586.41;5052533;28;20038;-59
2023/04/23 02:36:16;;;;;;;18.70;11.32;;;;;;;9.90;100.00;98584.50;5055277;28;20102;-60
2023/04/23 02:38:44;;;;;;;17.73;11.48;;;;;;;9.91;100.00;98585.31;5059662;28;20041;-60
2023/04/23 02:41:11;;;;;;;18.08;12.20;;;;;;;9.90;100.00;98581.00;5055819;28;20071;-60
2023/04/23 02:43:38;;;;;;;18.55;11.85;;;;;;;9.89;100.00;98576.72;5055608;28;20506;-60
2023/04/23 02:46:08;;;;;;;18.08;11.77;;;;;;;9.92;100.00;98581.56;5055439;28;20051;-60
2023/04/23 02:48:39;;;;;;;19.00;12.48;;;;;;;9.85;100.00;98591.66;5064248;28;20051;-60
2023/04/23 02:51:06;;;;;;;18.73;12.40;;;;;;;9.78;100.00;98585.72;5060238;28;20059;-60
2023/04/23 02:53:33;;;;;;;22.35;13.18;;;;;;;9.80;100.00;98583.59;5061875;28;20037;-60
2023/04/23 02:56:01;;;;;;;20.50;13.32;;;;;;;9.76;100.00;98587.81;5056599;28;20463;-60
2023/04/23 02:58:29;;;;;;;19.25;13.02;;;;;;;9.80;100.00;98594.28;5059043;28;20084;-60
2023/04/23 03:00:59;;;;;;;20.38;12.27;;;;;;;9.73;100.00;98591.81;5051605;28;20060;-59
2023/04/23 03:03:30;;;;;;;21.02;13.70;;;;;;;9.76;100.00;98590.50;5054030;28;20619;-59
2023/04/23 03:05:58;;;;;;;19.95;13.30;;;;;;;9.80;100.00;98594.28;5064322;28;20048;-59
2023/04/23 03:08:25;;;;;;;21.80;13.73;;;;;;;9.77;100.00;98587.59;5051224;28;20047;-59
2023/04/23 03:10:52;;;;;;;23.90;13.90;;;;;;;9.78;100.00;98586.50;5054153;28;20095;-59
2023/04/23 03:13:19;;;;;;;21.27;13.98;;;;;;;9.81;100.00;98585.19;5058744;28;20067;-59
2023/04/23 03:15:47;;;;;;;23.98;13.93;;;;;;;9.87;100.00;98579.66;5043932;28;20045;-59
2023/04/23 03:18:13;;;;;;;25.80;15.05;;;;;;;9.87;100.00;98589.56;5063529;28;20160;-59
2023/04/23 03:20:41;;;;;;;21.98;14.23;;;;;;;9.85;100.00;98586.31;5057476;28;20045;-60
2023/04/23 03:23:09;;;;;;;23.38;13.57;;;;;;;9.83;100.00;98583.88;5051591;28;20059;-59
2023/04/23 03:25:36;;;;;;;22.55;14.43;;;;;;;9.80;100.00;98575.56;5051838;28;20040;-59
2023/04/23 03:28:04;;;;;;;24.30;14.65;;;;;;;9.81;100.00;98583.34;5059338;28;20501;-60
2023/04/23 03:30:31;;;;;;;24.80;15.88;;;;;;;9.78;100.00;98585.72;5058610;28;20409;-59
2023/04/23 03:32:58;;;;;;;23.65;15.63;;;;;;;9.76;100.00;98582.47;5053222;28;20126;-59
2023/04/23 03:35:26;;;;;;;24.80;16.25;;;;;;;9.74;100.00;98579.25;5058671;28;20044;-59
2023/04/23 03:37:55;;;;;;;25.42;15.70;;;;;;;9.76;100.00;98593.19;5059220;28;20064;-59
2023/04/23 03:40:25;;;;;;;23.67;15.43;;;;;;;9.75;100.00;98591.56;5064102;28;20048;-59
2023/04/23 03:42:56;;;;;;;27.10;15.82;;;;;;;9.71;100.00;98585.94;5053714;28;20048;-59
2023/04/23 03:45:31;;;;;;;25.52;15.45;;;;;;;9.67;100.00;98584.81;5053018;28;20040;-59
2023/04/23 03:47:58;;;;;;;25.42;15.73;;;;;;;9.70;100.00;98578.94;5059390;28;20041;-59
2023/04/23 03:50:25;;;;;;;23.85;14.77;;;;;;;9.71;100.00;98576.03;5051178;28;20091;-59
2023/04/23 03:53:06;;;;;;;24.08;14.35;;;;;;;9.76;100.00;98579.78;5058325;28;20045;-59
2023/04/23 03:55:55;;;;;;;19.23;13.38;;;;;;;9.82;100.00;98582.28;5055905;28;20045;-59
2023/04/23 03:58:22;;;;;;;23.55;15.13;;;;;;;9.78;100.00;98583.03;5061213;28;20076;-59
2023/04/23 04:00:49;;;;;;;23.67;14.85;;;;;;;9.82;100.00;98595.66;5057524;28;20049;-59
2023/04/23 04:03:16;;;;;;;19.80;13.70;;;;;;;9.83;100.00;98588.44;5059885;28;20068;-60
2023/04/23 04:05:44;;;;;;;22.02;14.18;;;;;;;9.81;100.00;98586.03;5056673;28;20049;-59
2023/04/23 04:08:11;;;;;;;19.88;14.13;;;;;;;9.80;100.00;98584.38;5059795;28;20051;-59
2023/04/23 04:10:39;;;;;;;19.38;13.02;;;;;;;9.78;100.00;98580.34;5067773;28;20423;-59
2023/04/23 04:13:08;;;;;;;22.70;14.05;;;;;;;9.80;100.00;98584.38;5060144;28;20119;-59
2023/04/23 04:15:35;;;;;;;23.75;13.57;;;;;;;9.84;100.00;98584.72;5051986;28;20040;-59
2023/04/23 04:18:02;;;;;;;22.65;13.98;;;;;;;9.86;100.00;98587.91;5052832;28;20155;-59
2023/04/23 04:20:29;;;;;;;17.90;12.05;;;;;;;9.86;100.00;98587.91;5050860;28;20503;-59
2023/04/23 04:22:56;;;;;;;19.30;11.98;;;;;;;9.87;100.00;98590.34;5055132;28;20061;-59
2023/04/23 04:25:23;;;;;;;17.83;12.73;;;;;;;9.88;100.00;98594.66;5052901;28;20052;-59
2023/04/23 04:27:50;;;;;;;20.65;12.40;;;;;;;9.87;100.00;98593.03;5052336;28;20049;-59
2023/04/23 04:30:19;;;;;;;19.13;12.05;;;;;;;9.77;100.00;98592.13;5047517;28;20306;-60
2023/04/23 04:32:46;;;;;;;20.65;12.65;;;;;;;9.74;100.00;98584.63;5056360;28;20399;-59
2023/04/23 04:35:13;;;;;;;16.30;12.23;;;;;;;9.73;100.00;98581.09;5061777;28;20040;-59
2023/04/23 04:37:40;;;;;;;19.63;12.63;;;;;;;9.66;100.00;98578.66;5056980;28;20050;-59
2023/04/23 04:40:10;;;;;;;19.20;13.00;;;;;;;9.68;100.00;98576.53;5051744;28;20068;-59
2023/04/23 04:42:38;;;;;;;19.75;12.00;;;;;;;9.65;100.00;98577.03;5052767;28;20044;-59
2023/04/23 04:45:09;;;;;;;17.00;11.43;;;;;;;9.60;100.00;98576.97;5052161;28;20127;-59
2023/04/23 04:47:37;;;;;;;20.48;11.70;;;;;;;9.64;100.00;98574.63;5053255;28;20098;-59
2023/04/23 04:50:07;;;;;;;17.92;12.00;;;;;;;9.77;100.00;98573.41;5050692;28;20139;-59
2023/04/23 04:52:34;;;;;;;;;;;;;;;10.15;100.00;98570.50;5060612;28;20423;-59
2023/04/23 04:55:01;;;;;;;18.15;12.30;;;;;;;10.31;100.00;98584.09;5072371;28;20757;-59
2023/04/23 04:57:28;;;;;;;17.65;11.88;;;;;;;10.89;100.00;98578.81;5058393;28;20090;-59
2023/04/23 04:59:56;;;;;;;18.40;9.68;;;;;;;12.38;100.00;98577.31;5053272;28;20041;-59
2023/04/23 05:02:23;;;;;;;15.65;9.18;;;;;;;13.03;100.00;98589.03;5054906;28;20139;-59
2023/04/23 05:04:52;;;;;;;12.38;8.43;;;;;;;12.62;99.70;98594.47;5053167;28;20044;-59
2023/04/23 05:07:19;;;;;;;10.95;7.47;;;;;;;13.70;92.47;98591.44;5059138;28;20043;-59
2023/04/23 05:09:46;;;;;;;12.02;6.88;;;;;;;13.91;90.48;98589.44;5059048;28;20052;-59
2023/04/23 05:12:13;;;;;;;12.68;8.10;;;;;;;14.37;87.69;98586.38;5061204;28;20167;-59
2023/04/23 05:14:40;;;;;;;11.32;7.10;;;;;;;13.87;88.19;98588.38;5054345;28;20135;-59
2023/04/23 05:17:07;;;;;;;10.93;6.85;;;;;;;11.61;100.00;98591.44;5056825;28;20402;-59
2023/04/23 05:19:34;;;;;;;13.90;8.07;;;;;;;11.23;100.00;98589.97;5052561;28;20502;-59
2023/04/23 05:22:02;;;;;;;13.05;8.82;;;;;;;10.64;100.00;98599.03;5055736;28;20048;-59
2023/04/23 05:24:29;;;;;;;14.70;9.57;;;;;;;10.52;100.00;98591.19;5057380;28;20037;-59
2023/04/23 05:26:56;;;;;;;15.63;10.07;;;;;;;10.55;100.00;98592.53;5059638;28;20102;-59
2023/04/23 05:29:23;;;;;;;14.95;9.43;;;;;;;10.35;100.00;98580.59;5049517;28;20072;-59
2023/04/23 05:31:50;;;;;;;13.15;9.60;;;;;;;10.40;100.00;98582.53;5049735;28;20041;-59
2023/04/23 05:34:17;;;;;;;18.65;10.15;;;;;;;10.35;100.00;98579.81;5053507;28;20060;-59
2023/04/23 05:36:44;;;;;;;14.45;10.43;;;;;;;10.41;100.00;98580.66;5056709;28;20044;-59
2023/04/23 05:39:13;;;;;;;17.00;10.60;;;;;;;10.23;100.00;98579.94;5064230;28;20120;-59
2023/04/23 05:41:40;;;;;;;14.43;10.25;;;;;;;10.37;100.00;98575.00;5053711;28;20048;-59
2023/04/23 05:44:07;;;;;;;16.90;11.55;;;;;;;10.48;100.00;98578.56;5062795;28;20115;-59
2023/04/23 05:46:34;;;;;;;16.08;10.75;;;;;;;10.46;100.00;98569.97;5060729;28;20040;-60
2023/04/23 05:49:01;;;;;;;14.85;10.70;;;;;;;10.50;100.00;98579.91;5059529;28;20465;-59
2023/04/23 05:51:28;;;;;;;14.63;10.48;;;;;;;10.45;100.00;98584.44;5055648;28;20071;-59
2023/04/23 05:53:55;;;;;;;16.90;9.77;;;;;;;10.40;100.00;98582.53;5058010;28;20048;-59
2023/04/23 05:56:23;;;;;;;19.42;10.90;;;;;;;10.45;100.00;98585.25;5061260;28;20358;-59
2023/04/23 05:58:51;;;;;;;16.20;10.55;;;;;;;10.38;100.00;98590.00;5054670;28;20491;-59
2023/04/23 06:01:18;;;;;;;13.50;8.30;;;;;;;10.39;100.00;98591.63;5057843;28;20052;-59
2023/04/23 06:03:45;;;;;;;12.23;7.93;;;;;;;10.45;100.00;98595.94;5059574;28;20036;-59
2023/04/23 06:06:12;;;;;;;10.35;7.30;;;;;;;10.46;100.00;98596.75;5059250;28;20137;-59
2023/04/23 06:08:39;;;;;;;14.23;7.35;;;;;;;10.56;100.00;98584.25;5056655;28;20069;-59
2023/04/23 06:11:06;;;;;;;10.60;7.03;;;;;;;10.66;100.00;98585.38;5051442;28;20090;-59
2023/04/23 06:13:39;;;;;;;10.82;7.63;;;;;;;10.84;100.00;98587.63;5054649;28;20571;-59
2023/04/23 06:16:06;;;;;;;11.40;7.88;;;;;;;10.69;100.00;98580.31;5058112;28;20179;-59
2023/04/23 06:18:33;;;;;;;11.60;7.60;;;;;;;10.73;100.00;98583.28;5059744;28;20413;-59
2023/04/23 06:21:03;;;;;;;11.88;7.47;;;;;;;10.85;100.00;98583.09;5056668;28;20117;-59
2023/04/23 06:23:30;;;;;;;13.15;8.25;;;;;;;10.97;100.00;98589.03;5061935;28;20582;-60
2023/04/23 06:25:57;;;;;;;13.95;8.95;;;;;;;10.88;100.00;98604.00;5057071;28;20045;-59
2023/04/23 06:28:24;;;;;;;14.15;9.13;;;;;;;10.95;100.00;98605.38;5052705;28;20045;-58
2023/04/23 06:31:25;;;;;;;12.35;9.30;;;;;;;10.91;100.00;98609.66;5056538;28;20044;-60
2023/04/23 06:33:52;;;;;;;15.77;9.95;;;;;;;11.00;100.00;98610.78;5059184;28;20075;-59
2023/04/23 06:36:19;;;;;;;16.83;9.98;;;;;;;10.98;100.00;98604.88;5054769;28;20071;-59
2023/04/23 06:38:46;;;;;;;14.45;9.90;;;;;;;10.90;100.00;98604.56;5057080;28;20045;-58
2023/04/23 06:41:13;;;;;;;16.27;10.90;;;;;;;11.05;100.00;98587.75;5055810;28;20423;-61
2023/04/23 06:43:40;;;;;;;18.17;9.55;;;;;;;11.28;100.00;98583.81;5062813;28;20437;-61
2023/04/23 06:46:21;;;;;;;13.65;9.30;;;;;;;11.89;100.00;98585.91;5068622;28;20045;-61
2023/04/23 06:48:49;;;;;;;13.57;9.20;;;;;;;12.63;100.00;98579.16;5057248;28;20060;-58
2023/04/23 06:51:16;;;;;;;14.15;9.02;;;;;;;12.39;100.00;98578.94;5053977;28;20408;-60
2023/04/23 06:53:44;;;;;;;11.25;8.63;;;;;;;13.68;97.74;98582.84;5053598;28;20400;-58
2023/04/23 06:56:11;;;;;;;14.32;7.72;;;;;;;16.87;75.94;98576.84;5059882;28;20475;-58
2023/04/23 06:58:38;;;;;;;13.00;7.43;;;;;;;18.32;69.25;98582.44;5059139;28;20054;-58
2023/04/23 07:01:13;;;;;;;10.75;6.40;;;;;;;19.27;64.50;98583.22;5057814;28;20090;-58
2023/04/23 07:03:43;;;;;;;8.57;6.18;;;;;;;19.21;65.28;98579.06;5058034;28;20479;-58
2023/04/23 07:06:11;;;;;;;9.02;5.70;;;;;;;17.48;70.16;98565.91;5059458;28;20040;-59
2023/04/23 07:08:39;;;;;;;9.38;6.05;;;;;;;16.60;74.67;98566.78;5055533;28;20102;-58
2023/04/23 07:11:06;;;;;;;9.60;6.05;;;;;;;17.94;70.70;98563.00;5054632;28;20067;-59
2023/04/23 07:13:33;;;;;;;9.73;5.88;;;;;;;17.80;67.91;98571.19;5052622;28;20064;-59
2023/04/23 07:16:00;;;;;;;7.63;5.53;;;;;;;20.00;62.38;98575.34;5058178;28;20148;-58
2023/04/23 07:18:27;;;;;;;9.25;5.40;;;;;;;17.46;69.89;98574.34;5053440;28;20060;-59
2023/04/23 07:20:54;;;;;;;7.88;5.57;;;;;;;17.15;71.00;98577.69;5046400;28;20045;-58
2023/04/23 07:23:23;;;;;;;6.93;5.35;;;;;;;15.53;78.40;98582.75;5050622;28;20293;-59
2023/04/23 07:25:50;;;;;;;8.95;5.57;;;;;;;14.60;83.69;98587.56;5052646;28;20041;-59
2023/04/23 07:28:17;;;;;;;9.38;5.80;;;;;;;14.57;84.80;98585.44;5058909;28;20041;-60
2023/04/23 07:30:44;;;;;;;10.07;6.20;;;;;;;13.42;91.20;98580.28;5013892;28;1149946;-60
2023/04/23 07:33:11;;;;;;;9.40;6.68;;;;;;;12.77;94.60;98576.72;5060181;28;20037;-59
2023/04/23 07:35:38;;;;;;;14.13;6.38;;;;;;;12.85;92.96;98578.84;5061636;28;20134;-59
2023/04/23 07:38:05;;;;;;;9.90;6.18;;;;;;;12.99;91.11;98590.66;5058018;28;20143;-59
2023/04/23 07:40:33;;;;;;;7.38;5.43;;;;;;;12.79;93.13;98579.94;5059230;28;20143;-60
2023/04/23 07:43:00;;;;;;;8.27;6.10;;;;;;;12.48;94.09;98583.50;5060831;28;20583;-60
2023/04/23 07:45:27;;;;;;;8.48;6.32;;;;;;;12.48;94.73;98571.91;5060681;28;20040;-60
2023/04/23 07:47:55;;;;;;;9.48;5.97;;;;;;;12.92;93.54;98574.00;5052309;28;20131;-60
2023/04/23 07:50:22;;;;;;;9.27;5.88;;;;;;;12.97;92.14;98573.97;5062800;28;20052;-60
2023/04/23 07:52:49;;;;;;;8.02;5.63;;;;;;;12.97;94.48;98573.97;5060592;28;20051;-60
2023/04/23 07:55:16;;;;;;;10.65;5.57;;;;;;;13.31;91.16;98574.16;5052199;28;20036;-58
2023/04/23 07:57:44;;;;;;;9.35;6.10;;;;;;;13.25;91.90;98563.63;5055501;28;20053;-61
2023/04/23 08:00:13;;;;;;;8.88;5.20;;;;;;;14.06;87.74;98567.78;5052582;28;20081;-59
2023/04/23 08:02:40;;;;;;;8.18;5.35;;;;;;;14.55;84.56;98568.72;5054189;28;20048;-58
2023/04/23 08:05:08;;;;;;;10.20;4.57;;;;;;;14.65;81.22;98560.53;5057984;28;20047;-59
2023/04/23 08:07:35;;;;;;;8.43;5.03;;;;;;;15.02;80.33;98569.84;5051611;28;20045;-59
2023/04/23 08:10:04;;;;;;;10.45;5.20;;;;;;;16.21;75.52;98567.19;5060479;28;20080;-59
2023/04/23 08:12:33;;;;;;;6.40;3.85;;;;;;;16.97;69.69;98565.88;5055368;28;20581;-58
2023/04/23 08:15:01;;;;;;;8.98;4.30;;;;;;;17.28;69.97;98565.25;5050315;28;20041;-59
2023/04/23 08:17:35;;;;;;;7.57;4.60;;;;;;;16.90;70.96;98564.63;5076469;28;20053;-58
2023/04/23 08:20:05;;;;;;;6.40;3.63;;;;;;;17.56;68.89;98571.41;5050482;28;20139;-59
2023/04/23 08:22:32;;;;;;;7.82;4.05;;;;;;;15.85;74.49;98563.16;5064112;28;20063;-59
2023/04/23 08:24:59;;;;;;;8.75;4.35;;;;;;;15.11;77.28;98565.44;5057192;28;20582;-58
2023/04/23 08:27:26;;;;;;;4.60;3.30;;;;;;;14.25;79.92;98549.00;5049908;28;20075;-59
2023/04/23 08:29:53;;;;;;;5.88;3.80;;;;;;;15.03;77.14;98547.19;5053949;28;20057;-59
2023/04/23 08:32:22;;;;;;;8.73;4.25;;;;;;;16.16;71.92;98549.94;5052216;28;20079;-58
2023/04/23 08:34:49;;;;;;;7.03;4.10;;;;;;;16.87;69.29;98552.50;5054296;28;20132;-58
2023/04/23 08:37:16;;;;;;;10.25;3.72;;;;;;;15.47;75.00;98541.47;5047632;28;20754;-59
2023/04/23 08:39:43;;;;;;;7.03;4.03;;;;;;;14.86;76.62;98551.16;5053484;28;20121;-59
2023/04/23 08:42:11;;;;;;;8.82;4.35;;;;;;;16.84;70.36;98544.97;5057368;28;20531;-59
2023/04/23 08:44:38;;;;;;;5.88;3.60;;;;;;;15.79;73.61;98542.69;5057498;28;20044;-58
2023/04/23 08:47:06;;;;;;;8.35;3.97;;;;;;;15.11;76.51;98543.84;5056874;28;20523;-59
2023/04/23 08:49:34;;;;;;;8.00;3.75;;;;;;;16.84;71.61;98546.91;5051501;28;20148;-59
2023/04/23 08:52:10;;;;;;;9.50;3.53;;;;;;;17.81;65.42;98542.97;5060049;28;20250;-59
2023/04/23 08:54:37;;;;;;;6.78;3.60;;;;;;;18.48;60.28;98541.34;5056597;28;20048;-58
2023/04/23 08:57:04;;;;;;;8.50;3.40;;;;;;;18.66;61.02;98543.03;5058827;28;20397;-59
2023/04/23 08:59:32;;;;;;;8.40;3.17;;;;;;;18.92;58.61;98539.63;5061594;28;20411;-58
2023/04/23 09:02:00;;;;;;;5.32;2.70;;;;;;;17.39;63.06;98534.09;5057557;28;20514;-58
2023/04/23 09:04:27;;;;;;;9.65;2.90;;;;;;;19.17;58.78;98533.50;5048811;28;20111;-58
2023/04/23 09:06:56;;;;;;;5.00;2.05;;;;;;;17.77;59.34;98516.75;5051761;28;20063;-59
2023/04/23 09:09:23;;;;;;;8.02;2.60;;;;;;;17.88;58.13;98524.38;5056782;28;20464;-59
2023/04/23 09:11:50;;;;;;;8.88;2.40;;;;;;;17.85;58.30;98527.69;5053333;28;20037;-59
2023/04/23 09:14:17;;;;;;;4.93;2.38;;;;;;;18.15;57.21;98525.38;5050827;28;20076;-59
2023/04/23 09:16:44;;;;;;;6.47;2.63;;;;;;;18.07;58.23;98515.25;5050309;28;20041;-59
2023/04/23 09:19:11;;;;;;;5.50;2.53;;;;;;;17.98;59.08;98519.81;5056320;28;20139;-60
2023/04/23 09:21:38;;;;;;;6.85;2.47;;;;;;;19.57;55.46;98514.38;5055257;28;20074;-60
2023/04/23 09:24:10;;;;;;;5.90;2.65;;;;;;;19.56;53.06;98507.34;5058475;28;20146;-59
2023/04/23 09:26:37;;;;;;;5.22;2.40;;;;;;;18.94;56.49;98504.84;5053355;28;20377;-60
2023/04/23 09:29:04;;;;;;;5.28;2.40;;;;;;;18.98;56.50;98500.38;5050763;28;20091;-60
2023/04/23 09:31:31;;;;;;;7.80;2.63;;;;;;;18.22;57.20;98504.03;5054099;28;20490;-60
2023/04/23 09:33:58;;;;;;;7.07;2.40;;;;;;;17.38;61.41;98510.06;5060339;28;20135;-60
2023/04/23 09:36:27;;;;;;;5.75;2.15;;;;;;;17.09;62.97;98499.56;5055399;28;20384;-60
2023/04/23 09:38:56;;;;;;;6.05;2.60;;;;;;;17.33;61.96;98507.47;5054499;28;20044;-60
2023/04/23 09:41:25;;;;;;;10.15;2.67;;;;;;;18.21;59.77;98498.91;5054042;28;20430;-60
2023/04/23 09:43:53;;;;;;;4.47;2.17;;;;;;;18.63;57.58;98510.28;5052454;28;20045;-60
2023/04/23 09:46:33;;;;;;;5.32;2.30;;;;;;;17.81;60.68;98502.31;5063112;28;20048;-60
2023/04/23 09:49:01;;;;;;;9.50;2.60;;;;;;;18.17;57.70;98498.75;5056780;28;20036;-60
2023/04/23 09:51:28;;;;;;;4.57;2.10;;;;;;;18.26;56.74;98491.44;5057074;28;20270;-60
2023/04/23 09:53:55;;;;;;;3.47;2.20;;;;;;;17.81;58.56;98496.88;5059016;28;20526;-60
2023/04/23 09:56:23;;;;;;;4.53;2.20;;;;;;;17.96;60.17;98492.22;5053979;28;20045;-60
2023/04/23 09:58:51;;;;;;;6.32;2.30;;;;;;;18.57;57.37;98493.34;5055148;28;20072;-60
2023/04/23 10:01:18;;;;;;;5.95;2.33;;;;;;;17.68;58.23;98492.31;5054995;28;20094;-59
2023/04/23 10:03:45;;;;;;;5.78;2.22;;;;;;;17.03;59.24;98486.13;5056049;28;20036;-59
2023/04/23 10:06:14;;;;;;;8.10;2.55;;;;;;;16.78;62.16;98486.66;5055249;28;21382;-60
2023/04/23 10:08:41;;;;;;;5.45;2.45;;;;;;;17.08;61.33;98490.66;5047650;28;20056;-60
2023/04/23 10:11:08;;;;;;;4.88;2.30;;;;;;;17.84;59.08;98488.13;5071968;28;20132;-59
2023/04/23 10:13:35;;;;;;;6.50;2.17;;;;;;;17.80;58.96;98481.75;5056891;28;20114;-60
2023/04/23 10:16:04;;;;;;;8.73;2.60;;;;;;;17.07;61.40;98488.22;5056275;28;20104;-60
2023/04/23 10:18:31;;;;;;;3.88;2.20;;;;;;;17.66;61.34;98483.69;5055313;28;20049;-60
2023/04/23 10:21:00;;;;;;;6.88;3.03;;;;;;;18.19;58.09;98480.22;5049441;28;20049;-60
2023/04/23 10:23:28;;;;;;;8.05;4.15;;;;;;;17.78;57.88;98473.09;5051555;28;20053;-59
2023/04/23 10:25:55;;;;;;;13.05;7.60;;;;;;;17.55;59.82;98475.00;5057550;28;20131;-60
2023/04/23 10:28:27;;;;;;;5.93;2.45;;;;;;;17.14;59.00;98469.69;5056674;28;20094;-59
2023/04/23 10:30:55;;;;;;;4.43;2.10;;;;;;;16.88;59.58;98470.22;5051978;28;20043;-59
2023/04/23 10:33:23;;;;;;;46.75;23.58;;;;;;;17.80;57.99;98483.66;5055810;28;20491;-59
2023/04/23 10:35:50;;;;;;;4.15;2.00;;;;;;;16.61;60.37;98476.41;5055349;28;20040;-59
2023/04/23 10:38:17;;;;;;;186.48;90.55;;;;;;;17.29;59.39;98471.25;5062647;28;20045;-59
2023/04/23 10:40:45;;;;;;;25.33;11.35;;;;;;;16.47;62.69;98462.06;5059916;28;20064;-60
2023/04/23 10:43:12;;;;;;;10.13;4.78;;;;;;;16.54;64.42;98459.78;5053762;28;20041;-59
2023/04/23 10:45:40;;;;;;;39.08;19.42;;;;;;;16.44;64.43;98458.06;5053980;28;20040;-59
2023/04/23 10:48:07;;;;;;;159.65;67.78;;;;;;;16.34;64.53;98458.25;5056774;28;20506;-59
2023/04/23 10:50:36;;;;;;;109.30;56.30;;;;;;;16.16;63.43;98447.22;5060140;28;20115;-59
2023/04/23 10:53:03;;;;;;;3.78;2.40;;;;;;;15.79;64.21;98450.81;5053218;28;20442;-59
2023/04/23 10:55:31;;;;;;;5.00;1.92;;;;;;;15.62;65.96;98445.13;5054497;28;20135;-60
2023/04/23 10:57:59;;;;;;;7.82;2.42;;;;;;;15.53;66.64;98451.22;5054784;28;20099;-60
2023/04/23 11:00:26;;;;;;;8.35;2.30;;;;;;;15.20;68.19;98450.34;5053254;28;20048;-60
2023/04/23 11:02:53;;;;;;;5.93;2.25;;;;;;;15.03;69.91;98447.34;5056285;28;20047;-60
2023/04/23 11:05:22;;;;;;;4.22;2.20;;;;;;;15.37;68.47;98446.31;5058707;28;20048;-60
2023/04/23 11:08:14;;;;;;;6.82;2.40;;;;;;;16.38;66.14;98445.75;5056011;28;20274;-59
2023/04/23 11:10:51;;;;;;;7.28;2.78;;;;;;;17.10;63.87;98439.72;5040355;28;20064;-60
2023/04/23 11:13:25;;;;;;;8.63;3.08;;;;;;;17.30;62.36;98427.63;5065972;28;20048;-59
2023/04/23 11:16:15;;;;;;;4.82;2.15;;;;;;;16.33;63.47;98424.22;5054357;28;20063;-59
2023/04/23 11:19:03;;;;;;;8.00;3.38;;;;;;;16.47;64.23;98421.50;5061427;28;20544;-60
2023/04/23 11:22:01;;;;;;;6.13;2.60;;;;;;;17.06;62.69;98417.06;5055746;28;20067;-61
2023/04/23 11:24:30;;;;;;;5.50;2.90;;;;;;;16.89;61.65;98411.47;4976510;28;20047;-60
2023/04/23 11:26:57;;;;;;;5.53;3.10;;;;;;;16.70;62.78;98416.97;5040643;28;20400;-60
2023/04/23 11:29:25;;;;;;;7.72;3.22;;;;;;;17.53;61.76;98414.09;5060753;28;20398;-61